Time;durP1;ratioP1;P1;durP2;ratioP2;P2;SDS_P1;SDS_P2;PMS_P1;PMS_P2;Temp;Humidity;BMP_temperature;BMP_pressure;BME280_temperature;BME280_humidity;BME280_pressure;Samples;Min_cycle;Max_cycle;Signal;HPM_P1;HPM_P2
2022/10/24 00:02:06;;;;;;;1.60;1.10;;;21.60;62.90;;;;;;5086633;28;45416;-68
2022/10/24 00:04:35;;;;;;;2.50;1.02;;;21.60;62.90;;;;;;5086596;28;45315;-68
2022/10/24 00:07:02;;;;;;;2.65;1.13;;;21.60;62.90;;;;;;5086665;28;45147;-68
2022/10/24 00:09:29;;;;;;;1.48;1.00;;;21.60;62.80;;;;;;5087005;28;45273;-68
2022/10/24 00:11:57;;;;;;;1.33;1.10;;;21.60;62.80;;;;;;5086463;28;46480;-68
2022/10/24 00:14:24;;;;;;;1.65;1.15;;;21.60;62.80;;;;;;5086464;28;45374;-68
2022/10/24 00:16:51;;;;;;;1.33;1.23;;;21.60;62.80;;;;;;5086566;28;45403;-68
2022/10/24 00:19:18;;;;;;;1.50;1.20;;;21.60;62.80;;;;;;5086758;28;45506;-68
2022/10/24 00:21:45;;;;;;;1.05;0.95;;;21.60;63.50;;;;;;5086301;28;46689;-68
2022/10/24 00:24:11;;;;;;;2.25;1.08;;;21.60;62.80;;;;;;5086432;28;45326;-68
2022/10/24 00:26:38;;;;;;;1.92;1.00;;;21.60;63.50;;;;;;5086502;28;45296;-68
2022/10/24 00:29:06;;;;;;;1.20;1.08;;;21.60;62.70;;;;;;5086478;28;45400;-68
2022/10/24 00:31:33;;;;;;;1.88;1.20;;;21.50;62.60;;;;;;5086128;28;45345;-68
2022/10/24 00:34:00;;;;;;;1.35;0.80;;;21.50;62.60;;;;;;5086361;28;45189;-68
2022/10/24 00:36:27;;;;;;;2.10;1.08;;;21.50;62.60;;;;;;5086280;28;45483;-68
2022/10/24 00:38:54;;;;;;;1.65;1.20;;;21.60;62.70;;;;;;5086346;28;45405;-68
2022/10/24 00:41:27;;;;;;;1.58;1.10;;;21.50;62.60;;;;;;5085957;28;46377;-68
2022/10/24 00:44:20;;;;;;;3.15;1.20;;;21.50;62.50;;;;;;5085851;28;45388;-68
2022/10/24 00:46:49;;;;;;;2.50;1.30;;;21.50;62.50;;;;;;5086040;28;45278;-68
2022/10/24 00:49:17;;;;;;;1.42;1.20;;;21.60;62.60;;;;;;5086179;28;45502;-68
2022/10/24 00:51:43;;;;;;;2.65;1.20;;;21.50;62.50;;;;;;5086019;28;45368;-68
2022/10/24 00:54:11;;;;;;;1.75;1.15;;;21.50;62.50;;;;;;5086060;28;45205;-68
2022/10/24 00:56:39;;;;;;;2.55;1.20;;;21.50;62.50;;;;;;5086152;28;45440;-68
2022/10/24 00:59:07;;;;;;;1.48;1.05;;;21.60;62.60;;;;;;5086246;28;45344;-67
2022/10/24 01:01:35;;;;;;;1.23;1.08;;;21.60;62.60;;;;;;5085770;28;46716;-68
2022/10/24 01:04:02;;;;;;;1.70;1.20;;;21.50;62.50;;;;;;5085757;28;45245;-67
2022/10/24 01:06:40;;;;;;;1.95;1.30;;;21.50;62.50;;;;;;5085773;28;45316;-68
2022/10/24 01:09:13;;;;;;;1.85;0.80;;;21.50;62.50;;;;;;5086094;28;45295;-68
2022/10/24 01:11:46;;;;;;;1.60;1.00;;;21.60;62.60;;;;;;5085622;28;46397;-68
2022/10/24 01:14:18;;;;;;;1.58;1.13;;;21.50;62.50;;;;;;5085483;28;45320;-68
2022/10/24 01:16:48;;;;;;;1.30;1.00;;;21.50;62.50;;;;;;5085872;28;45316;-67
2022/10/24 01:19:27;;;;;;;1.25;1.10;;;21.50;62.60;;;;;;5085782;28;45265;-67
2022/10/24 01:21:56;;;;;;;1.75;1.00;;;21.50;62.50;;;;;;5085430;28;46395;-68
2022/10/24 01:24:38;;;;;;;1.60;1.30;;;21.50;62.50;;;;;;5085544;28;45349;-67
2022/10/24 01:27:47;;;;;;;1.95;1.17;;;21.50;62.50;;;;;;5085562;28;45248;-68
2022/10/24 01:30:15;;;;;;;1.27;0.90;;;21.40;63.10;;;;;;5085620;28;45272;-68
2022/10/24 01:32:46;;;;;;;3.33;1.20;;;21.40;62.40;;;;;;5085258;28;46356;-67
2022/10/24 01:35:23;;;;;;;2.03;1.00;;;21.40;63.20;;;;;;5085329;28;45321;-68
2022/10/24 01:37:52;;;;;;;1.63;1.13;;;21.40;62.40;;;;;;5085217;28;45350;-67
2022/10/24 01:40:21;;;;;;;1.27;1.10;;;21.40;63.10;;;;;;5085871;28;45392;-67
2022/10/24 01:42:48;;;;;;;1.60;1.00;;;21.40;62.40;;;;;;5085198;28;46397;-67
2022/10/24 01:45:29;;;;;;;1.27;0.90;;;21.40;62.40;;;;;;5085111;28;45338;-67
2022/10/24 01:47:56;;;;;;;2.45;1.15;;;21.40;62.40;;;;;;5085226;28;45333;-67
2022/10/24 01:50:23;;;;;;;1.02;0.82;;;21.40;62.40;;;;;;5088070;27;45380;-67
2022/10/24 01:52:50;;;;;;;1.20;1.00;;;21.40;63.10;;;;;;5088676;28;47166;-67
2022/10/24 01:55:17;;;;;;;1.42;0.90;;;21.40;62.30;;;;;;5088705;28;45288;-68
2022/10/24 01:57:44;;;;;;;1.52;0.90;;;21.40;62.20;;;;;;5088794;28;45256;-67
2022/10/24 02:00:14;;;;;;;1.30;0.93;;;21.40;62.30;;;;;;5088946;28;45182;-67
2022/10/24 02:02:44;;;;;;;1.38;0.85;;;21.40;62.30;;;;;;5088528;28;46410;-67
2022/10/24 02:05:12;;;;;;;1.00;0.90;;;21.30;62.30;;;;;;5088553;28;45353;-67
2022/10/24 02:07:40;;;;;;;3.55;0.90;;;21.30;62.20;;;;;;5088549;28;45352;-67
2022/10/24 02:10:09;;;;;;;1.00;0.90;;;21.30;62.20;;;;;;5088822;28;45318;-67
2022/10/24 02:12:38;;;;;;;1.73;1.20;;;21.30;62.20;;;;;;5088252;28;46392;-68
2022/10/24 02:15:07;;;;;;;1.10;1.00;;;21.30;62.20;;;;;;5085708;28;45365;-68
2022/10/24 02:17:33;;;;;;;1.25;0.90;;;21.30;62.20;;;;;;5088674;28;45314;-68
2022/10/24 02:20:02;;;;;;;1.38;1.13;;;21.30;62.10;;;;;;5088681;28;45260;-68
2022/10/24 02:22:30;;;;;;;1.45;1.20;;;21.30;62.20;;;;;;5088240;28;46658;-68
2022/10/24 02:25:00;;;;;;;1.23;1.08;;;21.30;62.10;;;;;;5088340;28;45388;-68
2022/10/24 02:27:30;;;;;;;2.03;0.90;;;21.30;62.10;;;;;;5088181;28;45153;-68
2022/10/24 02:29:59;;;;;;;2.13;1.23;;;21.30;62.10;;;;;;5088389;28;45415;-68
2022/10/24 02:32:28;;;;;;;1.13;0.90;;;21.30;62.10;;;;;;5088267;28;47336;-68
2022/10/24 02:34:55;;;;;;;1.27;0.90;;;21.30;62.90;;;;;;5088111;28;45333;-68
2022/10/24 02:37:23;;;;;;;1.23;0.95;;;21.30;62.10;;;;;;5088205;28;45265;-68
2022/10/24 02:39:50;;;;;;;1.35;0.88;;;21.30;62.10;;;;;;5088243;28;45265;-67
2022/10/24 02:42:17;;;;;;;1.13;0.80;;;21.20;62.00;;;;;;5087881;28;45239;-68
2022/10/24 02:44:45;;;;;;;2.42;1.27;;;21.30;62.10;;;;;;5087566;28;45485;-68
2022/10/24 02:47:12;;;;;;;2.38;1.40;;;21.20;62.70;;;;;;5088065;28;45315;-68
2022/10/24 02:49:39;;;;;;;0.90;0.73;;;21.20;62.00;;;;;;5088079;28;45208;-67
2022/10/24 02:52:06;;;;;;;1.48;0.90;;;21.20;62.80;;;;;;5087562;28;46377;-67
2022/10/24 02:54:34;;;;;;;1.63;0.85;;;21.20;62.00;;;;;;5087781;28;45233;-67
2022/10/24 02:57:02;;;;;;;1.60;0.80;;;21.20;62.00;;;;;;5087872;28;45295;-68
2022/10/24 02:59:29;;;;;;;2.03;0.90;;;21.20;62.00;;;;;;5088272;28;45353;-68
2022/10/24 03:01:55;;;;;;;3.42;1.20;;;21.20;62.00;;;;;;5086449;27;47294;-68
2022/10/24 03:04:22;;;;;;;1.48;0.85;;;21.20;62.00;;;;;;5087757;28;45237;-67
2022/10/24 03:06:49;;;;;;;2.00;0.88;;;21.20;61.90;;;;;;5087684;28;45407;-67
2022/10/24 03:09:16;;;;;;;2.15;1.05;;;21.20;62.00;;;;;;5087856;28;45313;-67
2022/10/24 03:11:44;;;;;;;0.95;0.90;;;21.20;62.00;;;;;;5087485;28;45376;-68
2022/10/24 03:14:11;;;;;;;1.85;0.98;;;21.20;62.10;;;;;;5087387;28;45297;-68
2022/10/24 03:16:38;;;;;;;1.00;1.00;;;21.10;62.00;;;;;;5087614;28;45341;-68
2022/10/24 03:19:05;;;;;;;1.35;0.85;;;21.20;62.70;;;;;;5087879;28;45349;-68
2022/10/24 03:21:32;;;;;;;1.10;1.00;;;21.20;62.00;;;;;;5087375;28;45466;-68
2022/10/24 03:23:58;;;;;;;1.60;0.82;;;21.10;62.00;;;;;;5087371;28;45320;-67
2022/10/24 03:26:25;;;;;;;1.20;0.90;;;21.10;61.90;;;;;;5087608;28;45217;-68
2022/10/24 03:28:53;;;;;;;1.63;0.90;;;21.10;61.90;;;;;;5087505;28;45255;-68
2022/10/24 03:31:20;;;;;;;1.42;1.00;;;21.10;61.90;;;;;;5087373;28;45446;-67
2022/10/24 03:33:47;;;;;;;1.05;0.98;;;21.10;61.90;;;;;;5087205;28;45457;-68
2022/10/24 03:36:14;;;;;;;1.48;1.23;;;21.10;62.70;;;;;;5087180;28;45317;-67
2022/10/24 03:38:41;;;;;;;2.47;1.30;;;21.10;61.90;;;;;;5087213;28;45364;-68
2022/10/24 03:41:08;;;;;;;1.52;1.00;;;21.10;62.00;;;;;;5087040;28;45214;-67
2022/10/24 03:43:34;;;;;;;1.15;0.95;;;21.10;61.90;;;;;;5086695;28;45589;-67
2022/10/24 03:46:03;;;;;;;2.15;1.08;;;21.10;62.00;;;;;;5087190;28;45349;-68
2022/10/24 03:48:30;;;;;;;1.33;1.02;;;21.10;62.00;;;;;;5087168;28;45490;-67
2022/10/24 03:50:56;;;;;;;1.52;1.02;;;21.10;62.00;;;;;;5086800;28;47403;-67
2022/10/24 03:53:23;;;;;;;1.38;0.90;;;21.10;61.90;;;;;;5086837;28;45282;-68
2022/10/24 03:55:50;;;;;;;2.80;1.08;;;21.10;62.00;;;;;;5087179;28;45280;-67
2022/10/24 03:58:17;;;;;;;1.45;0.95;;;21.10;62.00;;;;;;5087028;28;45277;-68
2022/10/24 04:00:44;;;;;;;1.92;0.82;;;21.10;62.10;;;;;;5086485;28;45538;-67
2022/10/24 04:03:12;;;;;;;0.82;0.82;;;21.10;62.10;;;;;;5086486;28;45312;-67
2022/10/24 04:05:39;;;;;;;1.00;0.90;;;21.00;62.80;;;;;;5086848;28;45333;-67
2022/10/24 04:08:06;;;;;;;0.75;0.75;;;21.00;62.00;;;;;;5086935;28;45317;-67
2022/10/24 04:10:33;;;;;;;0.95;0.82;;;21.00;62.10;;;;;;5086587;28;46341;-67
2022/10/24 04:13:00;;;;;;;1.85;1.20;;;21.00;62.10;;;;;;5086129;27;45308;-68
2022/10/24 04:15:27;;;;;;;1.95;1.35;;;21.00;62.10;;;;;;5086706;28;45240;-67
2022/10/24 04:17:53;;;;;;;1.48;1.13;;;21.00;62.80;;;;;;5086866;28;45290;-68
2022/10/24 04:20:22;;;;;;;1.10;0.93;;;21.00;62.20;;;;;;5086266;28;47306;-68
2022/10/24 04:22:49;;;;;;;1.48;0.95;;;21.00;62.20;;;;;;5086537;28;45323;-67
2022/10/24 04:25:16;;;;;;;1.35;0.95;;;21.00;62.20;;;;;;5086446;28;45227;-67
2022/10/24 04:27:44;;;;;;;1.63;1.25;;;20.90;62.30;;;;;;5086547;28;45243;-67
2022/10/24 04:30:12;;;;;;;1.50;1.13;;;20.90;62.20;;;;;;5086307;28;45268;-67
2022/10/24 04:32:39;;;;;;;2.08;1.05;;;20.90;62.30;;;;;;5086158;28;45309;-67
2022/10/24 04:35:06;;;;;;;1.13;1.02;;;20.90;62.40;;;;;;5086226;28;45243;-67
2022/10/24 04:37:34;;;;;;;1.42;1.10;;;20.90;62.40;;;;;;5086439;28;45190;-68
2022/10/24 04:40:01;;;;;;;2.35;1.33;;;20.90;62.40;;;;;;5086026;28;46279;-68
2022/10/24 04:42:28;;;;;;;1.10;0.93;;;20.90;62.30;;;;;;5086040;28;45357;-67
2022/10/24 04:44:54;;;;;;;1.23;1.13;;;20.90;62.40;;;;;;5085935;28;45328;-67
2022/10/24 04:47:21;;;;;;;0.93;0.80;;;20.90;62.40;;;;;;5086181;28;45253;-67
2022/10/24 04:49:48;;;;;;;2.05;0.90;;;20.90;63.10;;;;;;5085907;28;45289;-68
2022/10/24 04:52:15;;;;;;;0.95;0.95;;;20.90;62.40;;;;;;5085768;28;45231;-67
2022/10/24 04:54:43;;;;;;;2.00;0.90;;;20.90;62.40;;;;;;5086310;28;45361;-67
2022/10/24 04:57:10;;;;;;;1.73;1.00;;;20.90;62.30;;;;;;5086117;28;45415;-67
2022/10/24 04:59:37;;;;;;;1.30;1.20;;;20.90;63.00;;;;;;5085775;28;47324;-67
2022/10/24 05:02:04;;;;;;;1.08;0.95;;;20.90;62.30;;;;;;5085751;28;45262;-67
2022/10/24 05:04:31;;;;;;;1.98;0.98;;;20.90;63.10;;;;;;5086263;28;45204;-67
2022/10/24 05:06:58;;;;;;;0.70;0.70;;;20.80;62.30;;;;;;5086115;28;45574;-67
2022/10/24 05:09:25;;;;;;;1.38;1.00;;;20.80;63.10;;;;;;5085399;28;46649;-67
2022/10/24 05:11:54;;;;;;;3.22;0.80;;;20.80;62.30;;;;;;5085813;28;45309;-68
2022/10/24 05:14:21;;;;;;;1.50;1.00;;;20.80;62.50;;;;;;5086018;28;45266;-67
2022/10/24 05:16:48;;;;;;;1.30;1.10;;;20.80;62.50;;;;;;5085870;28;45427;-67
2022/10/24 05:19:15;;;;;;;1.13;0.90;;;20.80;62.30;;;;;;5085447;28;45409;-69
2022/10/24 05:21:42;;;;;;;1.45;0.90;;;20.80;62.40;;;;;;5085737;28;45269;-67
2022/10/24 05:24:09;;;;;;;0.85;0.70;;;20.80;63.20;;;;;;5084785;28;45277;-68
2022/10/24 05:26:35;;;;;;;1.00;0.90;;;20.80;62.50;;;;;;5086002;28;45360;-68
2022/10/24 05:29:04;;;;;;;2.78;0.95;;;20.80;62.50;;;;;;5085351;28;45301;-68
2022/10/24 05:31:30;;;;;;;1.23;0.90;;;20.70;62.40;;;;;;5085623;28;45398;-69
2022/10/24 05:33:57;;;;;;;0.90;0.80;;;20.70;62.60;;;;;;5085683;28;45279;-69
2022/10/24 05:36:24;;;;;;;1.42;0.95;;;20.70;62.40;;;;;;5085732;28;45430;-70
2022/10/24 05:38:51;;;;;;;2.90;0.95;;;20.70;62.50;;;;;;5085163;28;47642;-69
2022/10/24 05:41:18;;;;;;;2.58;0.80;;;20.70;63.20;;;;;;5085421;28;45312;-69
2022/10/24 05:43:45;;;;;;;1.63;1.00;;;20.70;62.50;;;;;;5085157;28;45304;-69
2022/10/24 05:46:13;;;;;;;1.23;0.93;;;20.70;63.30;;;;;;5085832;28;45269;-69
2022/10/24 05:48:40;;;;;;;1.23;0.77;;;20.70;62.50;;;;;;5085091;28;46350;-69
2022/10/24 05:51:07;;;;;;;0.95;0.93;;;20.70;62.60;;;;;;5085069;28;45219;-69
2022/10/24 05:53:33;;;;;;;1.80;1.00;;;20.70;63.40;;;;;;5085427;28;45300;-69
2022/10/24 05:56:00;;;;;;;1.65;1.00;;;20.70;62.60;;;;;;5085402;28;45397;-68
2022/10/24 05:58:27;;;;;;;0.98;0.80;;;20.70;63.20;;;;;;5084938;28;46406;-68
2022/10/24 06:00:54;;;;;;;1.63;0.93;;;20.70;62.70;;;;;;5084989;28;45177;-68
2022/10/24 06:03:22;;;;;;;1.58;1.00;;;20.70;62.70;;;;;;5085161;28;45242;-67
2022/10/24 06:05:49;;;;;;;1.42;0.85;;;20.70;62.70;;;;;;5085167;28;45555;-68
2022/10/24 06:08:16;;;;;;;1.27;0.88;;;20.60;62.70;;;;;;5084757;28;46342;-68
2022/10/24 06:10:46;;;;;;;0.85;0.80;;;20.70;62.70;;;;;;5084827;28;45208;-68
2022/10/24 06:13:13;;;;;;;1.25;1.00;;;20.70;62.80;;;;;;5085126;28;45317;-68
2022/10/24 06:15:41;;;;;;;1.00;0.80;;;20.60;62.80;;;;;;5085114;28;45287;-67
2022/10/24 06:18:08;;;;;;;1.20;0.80;;;20.60;62.80;;;;;;5084803;28;45349;-68
2022/10/24 06:20:36;;;;;;;1.60;0.90;;;20.60;62.80;;;;;;5082152;28;45273;-68
2022/10/24 06:23:03;;;;;;;1.23;0.80;;;20.60;62.70;;;;;;5084887;28;45312;-67
2022/10/24 06:25:30;;;;;;;1.17;1.08;;;20.60;62.70;;;;;;5084974;28;45296;-67
2022/10/24 06:27:57;;;;;;;2.42;0.88;;;20.60;62.80;;;;;;5084857;28;47326;-67
2022/10/24 06:30:23;;;;;;;1.20;0.90;;;20.60;62.70;;;;;;5084876;28;45318;-67
2022/10/24 06:32:50;;;;;;;1.02;0.88;;;20.60;62.70;;;;;;5084742;28;45204;-67
2022/10/24 06:35:18;;;;;;;1.13;0.70;;;20.60;62.60;;;;;;5085733;27;45236;-67
2022/10/24 06:37:46;;;;;;;0.73;0.73;;;20.60;62.60;;;;;;5087741;28;45304;-67
2022/10/24 06:40:13;;;;;;;1.02;0.90;;;20.60;63.30;;;;;;5088072;28;45301;-67
2022/10/24 06:42:39;;;;;;;0.85;0.70;;;20.60;62.60;;;;;;5088036;28;45266;-67
2022/10/24 06:45:07;;;;;;;0.80;0.80;;;20.60;62.80;;;;;;5087739;28;45403;-67
2022/10/24 06:47:34;;;;;;;0.80;0.80;;;20.60;62.70;;;;;;5087704;28;46672;-67
2022/10/24 06:50:01;;;;;;;0.95;0.82;;;20.60;62.70;;;;;;5087725;28;45309;-67
2022/10/24 06:52:27;;;;;;;1.63;1.00;;;20.60;62.80;;;;;;5087931;28;45331;-67
2022/10/24 06:54:56;;;;;;;1.95;1.20;;;20.60;62.70;;;;;;5088256;28;45242;-67
2022/10/24 06:57:23;;;;;;;1.13;0.75;;;20.60;62.70;;;;;;5087633;28;46338;-67
2022/10/24 06:59:49;;;;;;;0.70;0.68;;;20.60;62.60;;;;;;5087565;28;45303;-67
2022/10/24 07:02:16;;;;;;;1.73;1.20;;;20.60;62.70;;;;;;5087833;28;45308;-68
2022/10/24 07:04:43;;;;;;;1.05;0.80;;;20.50;62.60;;;;;;5087856;28;45228;-67
2022/10/24 07:07:14;;;;;;;0.98;0.88;;;20.50;62.70;;;;;;5087379;28;46389;-67
2022/10/24 07:09:41;;;;;;;1.27;0.90;;;20.50;62.80;;;;;;5087337;28;45314;-67
2022/10/24 07:12:09;;;;;;;0.80;0.73;;;20.50;62.70;;;;;;5087542;28;45344;-68
2022/10/24 07:14:36;;;;;;;1.15;0.90;;;20.50;63.50;;;;;;5087893;28;45192;-67
2022/10/24 07:17:04;;;;;;;2.80;0.90;;;20.50;62.70;;;;;;5087417;28;46532;-67
2022/10/24 07:19:30;;;;;;;1.00;0.90;;;20.50;62.80;;;;;;5087338;28;45454;-67
2022/10/24 07:21:57;;;;;;;1.75;0.98;;;20.50;62.90;;;;;;5087346;28;45402;-67
2022/10/24 07:24:24;;;;;;;1.35;1.10;;;20.50;62.70;;;;;;5087596;28;45335;-67
2022/10/24 07:26:51;;;;;;;1.02;0.85;;;20.50;63.50;;;;;;5087259;28;46686;-67
2022/10/24 07:29:19;;;;;;;1.08;1.08;;;20.50;63.40;;;;;;5086914;28;46019;-68
2022/10/24 07:31:46;;;;;;;2.35;0.90;;;20.50;62.70;;;;;;5087454;28;45331;-68
2022/10/24 07:34:13;;;;;;;1.10;1.00;;;20.50;62.80;;;;;;5087592;28;45401;-68
2022/10/24 07:36:40;;;;;;;1.33;1.10;;;20.50;62.80;;;;;;5086880;28;45229;-68
2022/10/24 07:39:07;;;;;;;0.80;0.80;;;20.50;62.80;;;;;;5087172;28;45299;-67
2022/10/24 07:41:36;;;;;;;1.23;1.00;;;20.50;62.80;;;;;;5087092;28;45290;-68
2022/10/24 07:44:03;;;;;;;1.27;1.17;;;20.50;62.90;;;;;;5086981;28;45304;-68
2022/10/24 07:46:31;;;;;;;1.20;1.02;;;20.50;62.80;;;;;;5086301;27;45239;-68
2022/10/24 07:48:58;;;;;;;1.50;1.02;;;20.50;62.80;;;;;;5086597;28;45188;-67
2022/10/24 07:51:26;;;;;;;2.00;1.17;;;20.50;62.90;;;;;;5086852;28;45320;-68
2022/10/24 07:53:53;;;;;;;1.58;1.20;;;20.50;62.10;;;;;;5087053;28;45459;-68
2022/10/24 07:56:20;;;;;;;1.15;1.00;;;20.50;62.90;;;;;;5086587;28;46405;-68
2022/10/24 07:58:47;;;;;;;1.27;1.00;;;20.50;63.00;;;;;;5086694;28;45222;-67
2022/10/24 08:01:15;;;;;;;1.23;1.13;;;20.50;62.90;;;;;;5086849;28;45246;-68
2022/10/24 08:03:44;;;;;;;1.73;1.10;;;20.50;63.00;;;;;;5086934;28;45384;-68
2022/10/24 08:06:12;;;;;;;1.10;1.00;;;20.50;62.90;;;;;;5086532;28;45270;-68
2022/10/24 08:08:39;;;;;;;2.58;1.10;;;20.40;62.90;;;;;;5086740;28;45309;-68
2022/10/24 08:11:09;;;;;;;1.30;1.20;;;20.50;62.90;;;;;;5086563;28;45411;-68
2022/10/24 08:13:36;;;;;;;1.27;1.10;;;20.50;63.00;;;;;;5087119;28;45372;-67
2022/10/24 08:16:05;;;;;;;0.93;0.93;;;20.40;62.80;;;;;;5086284;28;45221;-68
2022/10/24 08:18:32;;;;;;;1.30;1.20;;;20.40;63.00;;;;;;5086595;28;45410;-68
2022/10/24 08:21:00;;;;;;;2.20;1.27;;;20.40;62.90;;;;;;5086435;28;45341;-69
2022/10/24 08:23:27;;;;;;;2.03;1.08;;;20.40;62.90;;;;;;5086561;28;45462;-69
2022/10/24 08:25:54;;;;;;;1.85;1.08;;;20.40;63.00;;;;;;5085980;28;46607;-68
2022/10/24 08:28:22;;;;;;;1.10;1.00;;;20.40;63.10;;;;;;5086058;28;45333;-69
2022/10/24 08:30:55;;;;;;;1.75;0.95;;;20.40;63.00;;;;;;5086165;28;45434;-68
2022/10/24 08:33:22;;;;;;;1.10;1.00;;;20.40;63.00;;;;;;5086584;28;45454;-68
2022/10/24 08:35:49;;;;;;;1.73;1.10;;;20.40;63.00;;;;;;5085960;28;47338;-67
2022/10/24 08:38:17;;;;;;;1.08;0.98;;;20.40;63.00;;;;;;5085978;28;45272;-69
2022/10/24 08:40:47;;;;;;;1.10;1.00;;;20.40;63.10;;;;;;5086341;28;45193;-68
2022/10/24 08:43:14;;;;;;;1.60;1.10;;;20.40;63.00;;;;;;5086048;28;45567;-68
2022/10/24 08:45:43;;;;;;;2.10;1.02;;;20.40;63.10;;;;;;5086027;28;45652;-69
2022/10/24 08:48:13;;;;;;;1.33;1.23;;;20.40;63.00;;;;;;5085923;28;45301;-68
2022/10/24 08:50:41;;;;;;;1.50;1.30;;;20.40;63.10;;;;;;5086138;28;45336;-69
2022/10/24 08:53:10;;;;;;;1.63;0.93;;;20.40;63.10;;;;;;5086206;28;45123;-69
2022/10/24 08:55:39;;;;;;;1.30;1.20;;;20.40;63.10;;;;;;5085670;28;46388;-69
2022/10/24 08:58:06;;;;;;;1.65;1.23;;;20.40;63.10;;;;;;5085154;27;45211;-69
2022/10/24 09:00:40;;;;;;;1.30;1.20;;;20.40;63.10;;;;;;5085329;28;45201;-69
2022/10/24 09:03:10;;;;;;;1.13;1.02;;;20.40;63.10;;;;;;5085851;28;45187;-69
2022/10/24 09:05:38;;;;;;;1.15;1.05;;;20.40;63.00;;;;;;5086426;28;46728;-69
2022/10/24 09:08:10;;;;;;;1.13;0.93;;;20.40;63.80;;;;;;5086745;28;45257;-69
2022/10/24 09:10:43;;;;;;;4.13;1.27;;;20.40;63.20;;;;;;5085008;28;45382;-69
2022/10/24 09:13:13;;;;;;;1.17;1.00;;;20.40;63.10;;;;;;5085090;28;45445;-69
2022/10/24 09:15:40;;;;;;;1.90;1.02;;;20.40;63.10;;;;;;5086061;28;46298;-69
2022/10/24 09:18:11;;;;;;;1.98;1.20;;;20.40;63.10;;;;;;5086247;28;45214;-69
2022/10/24 09:20:38;;;;;;;0.90;0.90;;;20.40;63.10;;;;;;5085483;28;45397;-69
2022/10/24 09:23:05;;;;;;;1.50;1.00;;;20.40;63.20;;;;;;5086541;28;45450;-69
2022/10/24 09:25:34;;;;;;;1.35;1.02;;;20.40;63.00;;;;;;5086280;28;45232;-69
2022/10/24 09:28:04;;;;;;;1.13;1.02;;;20.30;63.10;;;;;;5086081;28;45295;-69
2022/10/24 09:30:31;;;;;;;3.33;1.10;;;20.30;63.00;;;;;;5083636;28;45294;-69
2022/10/24 09:32:59;;;;;;;1.20;1.10;;;20.40;63.80;;;;;;5085164;28;45198;-69
2022/10/24 09:35:26;;;;;;;1.27;1.08;;;20.40;63.00;;;;;;5084301;28;46411;-68
2022/10/24 09:37:55;;;;;;;1.45;1.35;;;20.40;63.10;;;;;;5067665;28;45298;-69
2022/10/24 09:40:22;;;;;;;2.53;1.20;;;20.30;62.90;;;;;;5086313;28;45252;-69
2022/10/24 09:42:52;;;;;;;1.27;1.10;;;20.30;63.00;;;;;;5086455;28;45207;-69
2022/10/24 09:45:37;;;;;;;1.33;1.17;;;20.30;63.00;;;;;;5084760;28;46365;-68
2022/10/24 09:48:06;;;;;;;1.48;1.20;;;20.30;63.10;;;;;;5084747;28;45404;-68
2022/10/24 09:50:34;;;;;;;1.90;1.20;;;20.30;63.10;;;;;;5085781;28;45218;-69
2022/10/24 09:53:03;;;;;;;2.05;1.40;;;20.30;63.00;;;;;;5086065;28;45336;-68
2022/10/24 09:55:30;;;;;;;1.45;1.27;;;20.30;63.00;;;;;;5084886;28;45375;-68
2022/10/24 09:58:02;;;;;;;1.30;1.20;;;20.30;63.70;;;;;;5085825;28;45194;-68
2022/10/24 10:00:30;;;;;;;3.97;1.42;;;20.30;63.10;;;;;;5086046;28;45332;-68
2022/10/24 10:03:00;;;;;;;1.85;1.13;;;20.30;63.00;;;;;;5086035;28;45266;-69
2022/10/24 10:05:28;;;;;;;1.50;1.40;;;20.30;63.10;;;;;;5084320;28;45469;-68
2022/10/24 10:07:55;;;;;;;1.67;1.40;;;20.30;63.00;;;;;;5085550;28;45241;-69
2022/10/24 10:10:32;;;;;;;1.20;1.10;;;20.30;63.80;;;;;;5086793;27;45216;-69
2022/10/24 10:13:05;;;;;;;2.70;1.10;;;20.30;63.00;;;;;;5089535;28;45226;-69
2022/10/24 10:15:34;;;;;;;2.25;1.30;;;20.30;63.00;;;;;;5088449;28;47507;-69
2022/10/24 10:18:05;;;;;;;1.35;1.25;;;20.30;63.00;;;;;;5068470;28;45284;-69
2022/10/24 10:20:35;;;;;;;2.40;1.30;;;20.30;63.10;;;;;;5068807;28;45205;-68
2022/10/24 10:23:25;;;;;;;1.60;1.50;;;20.30;63.10;;;;;;5068798;28;45350;-69
2022/10/24 10:26:06;;;;;;;1.60;1.45;;;20.30;63.00;;;;;;5068106;28;45288;-69
2022/10/24 10:28:34;;;;;;;1.77;1.30;;;20.30;63.80;;;;;;5068445;28;45248;-68
2022/10/24 10:31:01;;;;;;;1.40;1.30;;;20.30;63.10;;;;;;5073639;28;45225;-69
2022/10/24 10:33:35;;;;;;;1.27;1.17;;;20.30;63.10;;;;;;5088095;27;45399;-69
2022/10/24 10:36:04;;;;;;;1.65;1.40;;;20.30;63.00;;;;;;5080483;28;46623;-69
2022/10/24 10:38:43;;;;;;;1.95;1.38;;;20.30;63.10;;;;;;5081391;28;45249;-69
2022/10/24 10:41:14;;;;;;;1.40;1.30;;;20.30;63.10;;;;;;5068643;28;45327;-67
2022/10/24 10:43:43;;;;;;;2.13;1.50;;;20.30;63.00;;;;;;5068279;28;45286;-68
2022/10/24 10:46:14;;;;;;;1.50;1.40;;;20.30;63.00;;;;;;5068206;28;45470;-67
2022/10/24 10:48:50;;;;;;;1.40;1.20;;;20.30;63.00;;;;;;5086799;28;45315;-67
2022/10/24 10:51:20;;;;;;;1.38;1.20;;;20.30;63.00;;;;;;5079539;28;45352;-69
2022/10/24 10:53:50;;;;;;;2.22;1.40;;;20.30;63.00;;;;;;5068675;28;45543;-69
2022/10/24 10:56:28;;;;;;;1.73;1.40;;;20.30;63.10;;;;;;5068135;28;45480;-69
2022/10/24 10:59:01;;;;;;;1.38;1.27;;;20.30;63.10;;;;;;5068127;28;45323;-68
2022/10/24 11:01:31;;;;;;;1.35;1.25;;;20.30;63.10;;;;;;5088266;28;45281;-69
2022/10/24 11:04:02;;;;;;;1.40;1.30;;;20.30;63.10;;;;;;5088681;28;45049;-69
2022/10/24 11:06:37;;;;;;;2.28;1.40;;;20.30;63.10;;;;;;5088178;28;46409;-68
2022/10/24 11:09:15;;;;;;;1.52;1.20;;;20.30;63.10;;;;;;5087521;28;45387;-69
2022/10/24 11:11:43;;;;;;;1.25;1.15;;;20.30;63.10;;;;;;5088131;28;45207;-68
2022/10/24 11:14:16;;;;;;;1.60;1.42;;;20.30;63.10;;;;;;5087777;28;45139;-68
2022/10/24 11:16:43;;;;;;;1.92;1.50;;;20.30;63.00;;;;;;5087704;28;46412;-68
2022/10/24 11:19:21;;;;;;;1.40;1.30;;;20.30;63.00;;;;;;5084395;28;45252;-68
2022/10/24 11:21:48;;;;;;;1.83;1.35;;;20.30;63.00;;;;;;5068420;28;45442;-69
2022/10/24 11:24:17;;;;;;;1.40;1.30;;;20.30;63.00;;;;;;5068031;28;45278;-68
2022/10/24 11:26:45;;;;;;;1.30;1.20;;;20.30;63.10;;;;;;5073350;27;46430;-68
2022/10/24 11:29:15;;;;;;;1.50;1.40;;;20.30;63.70;;;;;;5108421;27;45341;-69
2022/10/24 11:31:43;;;;;;;1.50;1.38;;;20.40;63.10;;;;;;5108510;27;45243;-68
2022/10/24 11:34:14;;;;;;;1.42;1.30;;;20.40;63.10;;;;;;5098298;27;45402;-68
2022/10/24 11:36:43;;;;;;;1.90;1.40;;;20.40;63.10;;;;;;5081772;28;46416;-68
2022/10/24 11:39:12;;;;;;;3.35;1.40;;;20.40;63.10;;;;;;5083064;28;45139;-68
2022/10/24 11:41:44;;;;;;;1.30;1.20;;;20.40;63.10;;;;;;5088056;28;45355;-68
2022/10/24 11:44:17;;;;;;;1.35;1.25;;;20.40;63.10;;;;;;5070363;28;45405;-69
2022/10/24 11:46:44;;;;;;;1.50;1.40;;;20.40;63.10;;;;;;5067237;28;45233;-68
2022/10/24 11:49:17;;;;;;;1.15;1.02;;;20.40;63.10;;;;;;5067286;28;45321;-68
2022/10/24 11:51:46;;;;;;;1.40;1.30;;;20.40;63.00;;;;;;5079696;28;45295;-68
2022/10/24 11:54:16;;;;;;;1.55;1.38;;;20.40;63.00;;;;;;5087873;28;45389;-68
2022/10/24 11:56:45;;;;;;;2.03;1.30;;;20.40;62.90;;;;;;5086710;28;46387;-68
2022/10/24 11:59:13;;;;;;;1.17;1.08;;;20.50;62.90;;;;;;5087111;28;45501;-69
2022/10/24 12:02:07;;;;;;;1.20;1.13;;;20.50;62.80;;;;;;5087019;28;45315;-69
2022/10/24 12:04:44;;;;;;;1.42;1.20;;;20.50;62.70;;;;;;5090309;27;45498;-69
2022/10/24 12:07:47;;;;;;;2.42;1.13;;;20.50;62.60;;;;;;5088206;27;46760;-69
2022/10/24 12:10:26;;;;;;;1.23;1.13;;;20.60;62.70;;;;;;5061560;28;45455;-67
2022/10/24 12:13:07;;;;;;;2.80;1.35;;;20.60;62.70;;;;;;5086936;28;45180;-67
2022/10/24 12:15:42;;;;;;;1.80;1.40;;;20.60;62.70;;;;;;5086749;28;45320;-67
2022/10/24 12:18:10;;;;;;;1.20;1.10;;;20.60;62.70;;;;;;5085667;28;45432;-68
2022/10/24 12:20:38;;;;;;;1.33;1.20;;;20.60;62.70;;;;;;5085780;28;45328;-68
2022/10/24 12:23:05;;;;;;;1.23;1.13;;;20.60;62.80;;;;;;5085981;28;45275;-69
2022/10/24 12:25:34;;;;;;;1.33;1.23;;;20.60;62.60;;;;;;5086918;28;45352;-68
2022/10/24 12:28:02;;;;;;;1.02;1.02;;;20.60;62.70;;;;;;5086308;28;46387;-68
2022/10/24 12:30:30;;;;;;;1.67;1.40;;;20.70;62.70;;;;;;5085216;28;45296;-68
2022/10/24 12:32:57;;;;;;;1.30;1.17;;;20.70;62.70;;;;;;5086763;28;45289;-68
2022/10/24 12:35:51;;;;;;;1.40;1.30;;;20.70;63.40;;;;;;5087520;28;45426;-68
2022/10/24 12:38:34;;;;;;;2.67;1.38;;;20.70;63.40;;;;;;5086430;28;46413;-67
2022/10/24 12:41:05;;;;;;;1.65;1.30;;;20.70;62.90;;;;;;5069286;28;45396;-67
2022/10/24 12:43:33;;;;;;;1.63;1.33;;;20.70;62.60;;;;;;5086143;28;45153;-67
2022/10/24 12:46:00;;;;;;;1.23;1.10;;;20.80;62.90;;;;;;5087278;28;45188;-67
2022/10/24 12:48:31;;;;;;;1.42;1.27;;;20.70;62.60;;;;;;5086913;28;46494;-68
2022/10/24 12:51:19;;;;;;;1.33;1.23;;;20.80;62.50;;;;;;5085940;28;45488;-68
2022/10/24 12:54:20;;;;;;;3.08;1.30;;;20.80;62.70;;;;;;5074028;28;45466;-68
2022/10/24 12:57:21;;;;;;;1.42;1.33;;;20.80;62.60;;;;;;5083502;28;45289;-69
2022/10/24 12:59:49;;;;;;;1.10;1.10;;;20.80;62.80;;;;;;5086609;28;46353;-68